createdAt,value
2024-03-12T00:00:40.113Z,100815.94
2024-03-12T00:01:21.437Z,100811.63
2024-03-12T00:01:55.456Z,100806.06
2024-03-12T00:02:37.304Z,100814.69
2024-03-12T00:03:34.038Z,100810.97
2024-03-12T00:04:14.788Z,100808.53
2024-03-12T00:04:52.974Z,100817.13
2024-03-12T00:05:31.279Z,100808.97
2024-03-12T00:06:06.980Z,100807.94
2024-03-12T00:06:43.614Z,100799.97
2024-03-12T00:07:18.154Z,100805.28
2024-03-12T00:07:54.820Z,100813.88
2024-03-12T00:08:41.504Z,100806.09
2024-03-12T00:09:13.910Z,100796.66
2024-03-12T00:09:46.459Z,100805.28
2024-03-12T00:10:21.048Z,100786.44
2024-03-12T00:11:07.492Z,100803.63
2024-03-12T00:11:57.164Z,100800.34
2024-03-12T00:12:47.259Z,100798.72
2024-03-12T00:13:36.717Z,100797.06
2024-03-12T00:14:18.236Z,100804.03
2024-03-12T00:14:53.345Z,100803.00
2024-03-12T00:15:38.529Z,100804.66
2024-03-12T00:16:19.020Z,100798.31
2024-03-12T00:17:09.503Z,100796.44
2024-03-12T00:17:54.180Z,100796.44
2024-03-12T00:18:29.478Z,100788.47
2024-03-12T00:19:02.563Z,100797.06
2024-03-12T00:19:43.282Z,100791.75
2024-03-12T00:20:40.643Z,100797.06
2024-03-12T00:21:16.160Z,100796.66
2024-03-12T00:21:51.120Z,100790.09
2024-03-12T00:22:23.929Z,100795.44
2024-03-12T00:23:07.952Z,100794.59
2024-03-12T00:23:57.335Z,100799.50
2024-03-12T00:24:30.134Z,100788.03
2024-03-12T00:25:09.750Z,100796.03
2024-03-12T00:25:48.427Z,100802.16
2024-03-12T00:26:33.973Z,100788.88
2024-03-12T00:27:07.346Z,100788.03
2024-03-12T00:27:52.142Z,100789.88
2024-03-12T00:28:27.793Z,100784.38
2024-03-12T00:29:06.095Z,100797.50
2024-03-12T00:29:41.199Z,100792.16
2024-03-12T00:30:41.542Z,100787.66
2024-03-12T00:31:18.877Z,100791.28
2024-03-12T00:31:56.955Z,100782.50
2024-03-12T00:32:32.943Z,100786.81
2024-03-12T00:33:15.927Z,100790.09
2024-03-12T00:33:53.665Z,100783.13
2024-03-12T00:34:35.693Z,100787.44
2024-03-12T00:35:16.071Z,100786.63
2024-03-12T00:35:53.329Z,100786.38
2024-03-12T00:36:31.932Z,100784.56
2024-03-12T00:37:08.060Z,100788.03
2024-03-12T00:37:42.726Z,100782.72
2024-03-12T00:38:21.660Z,100782.72
2024-03-12T00:38:56.417Z,100780.25
2024-03-12T00:39:38.060Z,100780.25
2024-03-12T00:40:15.364Z,100783.09
2024-03-12T00:41:01.318Z,100780.44
2024-03-12T00:41:39.431Z,100784.13
2024-03-12T00:42:18.123Z,100790.06
2024-03-12T00:43:07.513Z,100790.47
2024-03-12T00:43:40.027Z,100790.66
2024-03-12T00:44:15.078Z,100775.31
2024-03-12T00:44:52.369Z,100787.59
2024-03-12T00:45:40.521Z,100785.75
2024-03-12T00:46:22.401Z,100780.66
2024-03-12T00:46:58.376Z,100782.69
2024-03-12T00:47:35.017Z,100783.50
2024-03-12T00:48:19.452Z,100780.19
2024-03-12T00:49:05.477Z,100780.59
2024-03-12T00:49:40.121Z,100780.00
2024-03-12T00:50:28.380Z,100773.63
2024-03-12T00:51:02.958Z,100785.09
2024-03-12T00:51:39.063Z,100774.69
2024-03-12T00:52:14.657Z,100778.34
2024-03-12T00:52:58.266Z,100780.19
2024-03-12T00:53:33.593Z,100777.72
2024-03-12T00:54:09.231Z,100773.22
2024-03-12T00:54:44.342Z,100780.00
2024-03-12T00:55:25.027Z,100778.97
2024-03-12T00:56:04.648Z,100773.84
2024-03-12T00:56:43.222Z,100767.50
2024-03-12T00:57:18.245Z,100782.44
2024-03-12T00:57:51.579Z,100771.63
2024-03-12T00:58:30.031Z,100775.69
2024-03-12T00:59:09.404Z,100771.22
2024-03-12T00:59:48.779Z,100773.69
2024-03-12T01:00:28.235Z,100769.56
2024-03-12T01:01:16.712Z,100768.56
2024-03-12T01:01:53.806Z,100771.22
2024-03-12T01:02:32.109Z,100760.56
2024-03-12T01:03:11.129Z,100770.44
2024-03-12T01:03:56.586Z,100770.38
2024-03-12T01:04:47.268Z,100770.38
2024-03-12T01:05:34.656Z,100765.88
2024-03-12T01:06:25.306Z,100758.94
2024-03-12T01:07:09.050Z,100766.88
2024-03-12T01:07:47.268Z,100765.06
2024-03-12T01:08:22.463Z,100765.66
2024-03-12T01:08:54.957Z,100763.81
2024-03-12T01:09:39.922Z,100759.34
2024-03-12T01:10:13.614Z,100759.34
2024-03-12T01:10:49.223Z,100756.47
2024-03-12T01:11:27.116Z,100764.25
2024-03-12T01:12:11.437Z,100757.91
2024-03-12T01:12:56.035Z,100757.31
2024-03-12T01:13:31.311Z,100762.81
2024-03-12T01:14:09.080Z,100758.94
2024-03-12T01:14:41.673Z,100751.16
2024-03-12T01:15:22.344Z,100758.94
2024-03-12T01:16:16.573Z,100750.34
2024-03-12T01:16:55.544Z,100758.09
2024-03-12T01:17:39.342Z,100754.41
2024-03-12T01:18:20.783Z,100758.91
2024-03-12T01:18:53.356Z,100758.72
2024-03-12T01:19:29.056Z,100759.34
2024-03-12T01:20:01.570Z,100755.66
2024-03-12T01:20:43.061Z,100770.44
2024-03-12T01:21:21.718Z,100754.84
2024-03-12T01:22:00.520Z,100755.25
2024-03-12T01:22:38.990Z,100753.78
2024-03-12T01:23:22.452Z,100757.06
2024-03-12T01:23:55.921Z,100754.41
2024-03-12T01:24:32.981Z,100747.03
2024-03-12T01:25:11.661Z,100757.69
2024-03-12T01:25:49.603Z,100752.38
2024-03-12T01:26:27.334Z,100752.81
2024-03-12T01:27:08.204Z,100749.31
2024-03-12T01:27:43.734Z,100753.59
2024-03-12T01:28:25.269Z,100750.94
2024-03-12T01:29:04.752Z,100752.81
2024-03-12T01:29:47.652Z,100752.81
2024-03-12T01:30:22.436Z,100751.78
2024-03-12T01:30:58.055Z,100750.94
2024-03-12T01:31:42.597Z,100749.94
2024-03-12T01:32:19.970Z,100746.66
2024-03-12T01:32:55.166Z,100744.19
2024-03-12T01:33:30.592Z,100744.84
2024-03-12T01:34:08.286Z,100748.28
2024-03-12T01:34:49.149Z,100753.59
2024-03-12T01:35:26.261Z,100749.09
2024-03-12T01:36:07.106Z,100755.25
2024-03-12T01:36:48.573Z,100753.00
2024-03-12T01:37:25.853Z,100748.69
2024-03-12T01:37:58.721Z,100749.50
2024-03-12T01:38:36.266Z,100753.81
2024-03-12T01:39:17.544Z,100747.50
2024-03-12T01:39:57.869Z,100741.34
2024-03-12T01:40:36.428Z,100749.09
2024-03-12T01:41:09.732Z,100747.91
2024-03-12T01:42:37.642Z,100747.09
2024-03-12T01:43:17.806Z,100749.09
2024-03-12T01:44:13.383Z,100747.28
2024-03-12T01:44:59.124Z,100752.59
2024-03-12T01:45:35.462Z,100740.31
2024-03-12T01:46:17.270Z,100749.94
2024-03-12T01:47:03.642Z,100743.78
2024-03-12T01:47:42.768Z,100741.75
2024-03-12T01:48:16.648Z,100737.28
2024-03-12T01:49:04.291Z,100738.91
2024-03-12T01:49:39.945Z,100735.44
2024-03-12T01:50:15.164Z,100745.03
2024-03-12T01:50:53.570Z,100743.00
2024-03-12T01:51:40.522Z,100741.16
2024-03-12T01:52:37.498Z,100742.59
2024-03-12T01:53:11.418Z,100741.34
2024-03-12T01:53:44.217Z,100745.03
2024-03-12T01:54:37.182Z,100747.03
2024-03-12T01:55:10.359Z,100742.31
2024-03-12T01:55:48.542Z,100751.13
2024-03-12T01:56:21.964Z,100737.81
2024-03-12T01:56:59.841Z,100734.34
2024-03-12T01:57:33.985Z,100735.16
2024-03-12T01:58:16.136Z,100744.59
2024-03-12T01:58:53.796Z,100733.34
2024-03-12T01:59:31.484Z,100730.66
2024-03-12T02:00:21.473Z,100744.78
2024-03-12T02:00:57.191Z,100746.22
2024-03-12T02:01:38.716Z,100744.59
2024-03-12T02:02:29.224Z,100735.16
2024-03-12T02:03:10.573Z,100735.38
2024-03-12T02:03:48.653Z,100735.38
2024-03-12T02:04:23.634Z,100735.38
2024-03-12T02:05:14.526Z,100735.38
2024-03-12T02:05:58.479Z,100728.59
2024-03-12T02:06:40.147Z,100727.59
2024-03-12T02:07:18.006Z,100734.56
2024-03-12T02:07:52.660Z,100729.25
2024-03-12T02:08:33.700Z,100730.06
2024-03-12T02:09:08.651Z,100730.91
2024-03-12T02:09:49.126Z,100716.56
2024-03-12T02:10:21.430Z,100728.81
2024-03-12T02:11:11.280Z,100724.13
2024-03-12T02:11:46.564Z,100723.28
2024-03-12T02:12:20.111Z,100731.09
2024-03-12T02:12:58.212Z,100731.91
2024-03-12T02:13:30.856Z,100734.34
2024-03-12T02:14:12.231Z,100729.03
2024-03-12T02:14:50.320Z,100725.56
2024-03-12T02:15:22.883Z,100726.38
2024-03-12T02:16:05.105Z,100723.94
2024-03-12T02:16:42.334Z,100724.31
2024-03-12T02:17:19.457Z,100724.31
2024-03-12T02:18:04.132Z,100729.84
2024-03-12T02:18:41.958Z,100728.00
2024-03-12T02:19:14.598Z,100729.63
2024-03-12T02:19:48.755Z,100729.44
2024-03-12T02:20:29.109Z,100726.78
2024-03-12T02:21:09.424Z,100729.44
2024-03-12T02:21:49.936Z,100729.44
2024-03-12T02:22:28.373Z,100721.47
2024-03-12T02:23:31.092Z,100732.09
2024-03-12T02:24:09.073Z,100720.03
2024-03-12T02:24:44.191Z,100720.84
2024-03-12T02:25:36.695Z,100724.31
2024-03-12T02:26:12.180Z,100725.34
2024-03-12T02:26:57.373Z,100731.69
2024-03-12T02:27:29.901Z,100727.38
2024-03-12T02:28:07.975Z,100724.72
2024-03-12T02:28:40.586Z,100724.91
2024-03-12T02:29:21.651Z,100731.88
2024-03-12T02:30:10.111Z,100728.38
2024-03-12T02:30:48.561Z,100725.31
2024-03-12T02:31:27.622Z,100724.47
2024-03-12T02:32:14.414Z,100723.66
2024-03-12T02:32:49.213Z,100720.41
2024-03-12T02:33:30.605Z,100721.59
2024-03-12T02:34:05.851Z,100732.03
2024-03-12T02:34:40.506Z,100726.91
2024-03-12T02:35:28.370Z,100728.56
2024-03-12T02:36:12.184Z,100732.84
2024-03-12T02:36:44.683Z,100713.25
2024-03-12T02:37:17.232Z,100724.47
2024-03-12T02:37:55.516Z,100720.81
2024-03-12T02:38:33.716Z,100722.66
2024-03-12T02:39:08.788Z,100718.97
2024-03-12T02:39:41.338Z,100721.63
2024-03-12T02:40:20.039Z,100711.00
2024-03-12T02:40:52.510Z,100715.50
2024-03-12T02:41:32.181Z,100719.81
2024-03-12T02:42:09.421Z,100716.13
2024-03-12T02:42:47.509Z,100719.59
2024-03-12T02:43:19.974Z,100715.09
2024-03-12T02:43:53.449Z,100722.47
2024-03-12T02:44:31.877Z,100719.81
2024-03-12T02:45:14.282Z,100712.84
2024-03-12T02:45:54.280Z,100708.94
2024-03-12T02:46:29.565Z,100719.56
2024-03-12T02:47:13.035Z,100711.59
2024-03-12T02:47:47.182Z,100712.59
2024-03-12T02:48:23.333Z,100706.47
2024-03-12T02:48:56.134Z,100709.13
2024-03-12T02:49:34.247Z,100712.59
2024-03-12T02:50:13.965Z,100712.00
2024-03-12T02:50:49.219Z,100709.72
2024-03-12T02:51:25.270Z,100714.22
2024-03-12T02:52:00.950Z,100707.06
2024-03-12T02:52:33.608Z,100707.06
2024-03-12T02:53:12.326Z,100713.84
2024-03-12T02:53:55.975Z,100713.00
2024-03-12T02:54:31.744Z,100711.38
2024-03-12T02:55:15.295Z,100705.03
2024-03-12T02:55:53.550Z,100707.69
2024-03-12T02:56:28.912Z,100708.53
2024-03-12T02:57:09.900Z,100710.97
2024-03-12T02:57:45.227Z,100709.13
2024-03-12T02:58:38.320Z,100705.25
2024-03-12T02:59:17.063Z,100709.94
2024-03-12T02:59:52.798Z,100710.78
2024-03-12T03:00:44.338Z,100699.50
2024-03-12T03:01:23.518Z,100714.66
2024-03-12T03:02:04.093Z,100704.03
2024-03-12T03:02:50.778Z,100705.03
2024-03-12T03:03:34.297Z,100705.63
2024-03-12T03:04:25.137Z,100706.69
2024-03-12T03:05:00.235Z,100706.88
2024-03-12T03:05:35.881Z,100708.53
2024-03-12T03:06:13.672Z,100707.47
2024-03-12T03:06:51.856Z,100710.97
2024-03-12T03:07:26.464Z,100710.13
2024-03-12T03:08:17.465Z,100701.16
2024-03-12T03:08:49.771Z,100704.03
2024-03-12T03:09:36.537Z,100708.31
2024-03-12T03:10:18.144Z,100703.81
2024-03-12T03:10:56.585Z,100709.94
2024-03-12T03:11:37.645Z,100703.63
2024-03-12T03:12:11.137Z,100708.31
2024-03-12T03:12:53.862Z,100709.34
2024-03-12T03:13:28.933Z,100703.19
2024-03-12T03:14:04.446Z,100706.69
2024-03-12T03:14:36.947Z,100702.38
2024-03-12T03:15:13.995Z,100704.03
2024-03-12T03:15:49.835Z,100703.19
2024-03-12T03:16:22.757Z,100698.50
2024-03-12T03:17:03.731Z,100706.09
2024-03-12T03:17:54.223Z,100701.97
2024-03-12T03:18:31.291Z,100702.78
2024-03-12T03:19:03.733Z,100704.22
2024-03-12T03:19:36.355Z,100694.63
2024-03-12T03:20:20.168Z,100698.91
2024-03-12T03:20:55.701Z,100700.78
2024-03-12T03:21:31.766Z,100701.56
2024-03-12T03:22:07.410Z,100703.22
2024-03-12T03:22:42.457Z,100696.25
2024-03-12T03:23:29.660Z,100696.47
2024-03-12T03:24:02.960Z,100695.00
2024-03-12T03:24:38.772Z,100702.78
2024-03-12T03:25:18.269Z,100703.63
2024-03-12T03:25:50.886Z,100703.63
2024-03-12T03:26:26.365Z,100702.59
2024-03-12T03:26:58.800Z,100696.25
2024-03-12T03:27:33.953Z,100703.03
2024-03-12T03:28:06.732Z,100693.22
2024-03-12T03:28:39.519Z,100699.13
2024-03-12T03:29:12.785Z,100699.78
2024-03-12T03:29:47.847Z,100706.72
2024-03-12T03:30:22.789Z,100701.41
2024-03-12T03:31:04.371Z,100701.59
2024-03-12T03:31:48.746Z,100697.50
2024-03-12T03:32:22.468Z,100698.53
2024-03-12T03:33:01.108Z,100698.13
2024-03-12T03:33:38.904Z,100691.16
2024-03-12T03:34:29.643Z,100690.97
2024-03-12T03:35:06.514Z,100689.53
2024-03-12T03:35:56.889Z,100690.56
2024-03-12T03:37:24.222Z,100691.75
2024-03-12T03:38:07.248Z,100681.13
2024-03-12T03:38:44.998Z,100687.47
2024-03-12T03:39:20.394Z,100692.56
2024-03-12T03:40:01.506Z,100685.63
2024-03-12T03:40:39.936Z,100687.25
2024-03-12T03:41:34.911Z,100686.25
2024-03-12T03:43:16.156Z,100691.16
2024-03-12T03:43:53.623Z,100683.38
2024-03-12T03:44:33.150Z,100688.28
2024-03-12T03:45:12.566Z,100691.56
2024-03-12T03:45:48.032Z,100688.91
2024-03-12T03:46:20.421Z,100693.00
2024-03-12T03:46:55.441Z,100690.16
2024-03-12T03:47:35.355Z,100695.47
2024-03-12T03:48:13.883Z,100693.81
2024-03-12T03:49:00.944Z,100695.66
2024-03-12T03:49:39.111Z,100691.16
2024-03-12T03:50:17.721Z,100693.44
2024-03-12T03:50:52.645Z,100694.69
2024-03-12T03:51:27.817Z,100698.34
2024-03-12T03:52:11.360Z,100687.53
2024-03-12T03:52:50.434Z,100693.47
2024-03-12T03:53:28.609Z,100701.88
2024-03-12T03:54:08.699Z,100684.25
2024-03-12T03:54:43.588Z,100695.53
2024-03-12T03:55:24.735Z,100690.22
2024-03-12T03:56:17.194Z,100695.72
2024-03-12T03:56:55.081Z,100685.69
2024-03-12T03:57:30.554Z,100691.00
2024-03-12T03:58:02.975Z,100684.03
2024-03-12T03:58:38.328Z,100695.69
2024-03-12T03:59:17.639Z,100685.28
2024-03-12T03:59:58.485Z,100694.47
2024-03-12T04:00:35.169Z,100689.97
2024-03-12T04:01:09.760Z,100682.41
2024-03-12T04:01:45.214Z,100693.84
2024-03-12T04:02:25.056Z,100690.38
2024-03-12T04:03:08.040Z,100696.09
2024-03-12T04:03:53.205Z,100687.28
2024-03-12T04:04:28.910Z,100690.97
2024-03-12T04:05:11.901Z,100696.91
2024-03-12T04:06:27.407Z,100693.22
2024-03-12T04:07:06.489Z,100686.25
2024-03-12T04:08:03.960Z,100683.78
2024-03-12T04:08:39.675Z,100695.88
2024-03-12T04:09:17.716Z,100684.00
2024-03-12T04:10:02.533Z,100692.34
2024-03-12T04:11:36.311Z,100685.56
2024-03-12T04:12:26.546Z,100685.56
2024-03-12T04:13:01.784Z,100680.06
2024-03-12T04:13:40.811Z,100681.72
2024-03-12T04:14:14.095Z,100677.22
2024-03-12T04:15:01.662Z,100678.03
2024-03-12T04:15:36.507Z,100683.13
2024-03-12T04:16:12.068Z,100685.41
2024-03-12T04:16:45.042Z,100678.22
2024-03-12T04:17:23.464Z,100675.38
2024-03-12T04:18:04.653Z,100679.06
2024-03-12T04:18:45.577Z,100680.72
2024-03-12T04:19:20.862Z,100681.13
2024-03-12T04:20:04.538Z,100674.16
2024-03-12T04:20:42.758Z,100683.97
2024-03-12T04:21:22.106Z,100675.38
2024-03-12T04:21:57.123Z,100682.34
2024-03-12T04:22:30.063Z,100682.75
2024-03-12T04:23:02.828Z,100678.03
2024-03-12T04:23:35.370Z,100676.22
2024-03-12T04:24:12.364Z,100677.84
2024-03-12T04:24:50.928Z,100677.03
2024-03-12T04:25:38.132Z,100674.38
2024-03-12T04:26:13.659Z,100676.22
2024-03-12T04:26:57.321Z,100678.88
2024-03-12T04:27:29.813Z,100680.88
2024-03-12T04:28:18.282Z,100677.22
2024-03-12T04:29:05.065Z,100669.66
2024-03-12T04:29:58.111Z,100677.63
2024-03-12T04:30:50.339Z,100690.13
2024-03-12T04:31:32.992Z,100677.63
2024-03-12T04:32:08.376Z,100677.44
2024-03-12T04:32:44.799Z,100667.22
2024-03-12T04:33:19.203Z,100681.34
2024-03-12T04:33:54.360Z,100672.72
2024-03-12T04:34:31.746Z,100680.72
2024-03-12T04:35:24.626Z,100677.63
2024-03-12T04:35:57.700Z,100678.63
2024-03-12T04:36:30.101Z,100674.16
2024-03-12T04:37:05.742Z,100674.16
2024-03-12T04:37:46.711Z,100672.13
2024-03-12T04:38:27.121Z,100674.97
2024-03-12T04:38:59.381Z,100670.44
2024-03-12T04:39:39.112Z,100669.25
2024-03-12T04:40:14.569Z,100672.72
2024-03-12T04:40:51.438Z,100672.50
2024-03-12T04:41:34.764Z,100667.19
2024-03-12T04:42:07.308Z,100672.28
2024-03-12T04:42:46.928Z,100674.94
2024-03-12T04:43:28.114Z,100673.91
2024-03-12T04:44:03.760Z,100671.91
2024-03-12T04:44:41.648Z,100670.06
2024-03-12T04:45:28.501Z,100669.03
2024-03-12T04:46:16.493Z,100674.16
2024-03-12T04:46:58.218Z,100668.41
2024-03-12T04:47:33.099Z,100669.03
2024-03-12T04:48:14.592Z,100669.84
2024-03-12T04:48:55.254Z,100668.19
2024-03-12T04:49:38.113Z,100669.66
2024-03-12T04:50:16.081Z,100673.13
2024-03-12T04:50:54.769Z,100671.91
2024-03-12T04:51:42.576Z,100673.56
2024-03-12T04:52:17.854Z,100677.03
2024-03-12T04:53:02.390Z,100674.19
2024-03-12T04:53:40.596Z,100674.97
2024-03-12T04:54:24.135Z,100677.25
2024-03-12T04:55:06.875Z,100674.78
2024-03-12T04:55:49.046Z,100677.44
2024-03-12T04:56:24.040Z,100672.75
2024-03-12T04:56:59.288Z,100675.22
2024-03-12T04:57:47.223Z,100677.03
2024-03-12T04:58:30.838Z,100670.09
2024-03-12T04:59:12.212Z,100668.47
2024-03-12T04:59:47.683Z,100676.44
2024-03-12T05:00:25.739Z,100671.13
2024-03-12T05:01:07.371Z,100675.63
2024-03-12T05:01:40.215Z,100677.44
2024-03-12T05:02:27.772Z,100671.13
2024-03-12T05:03:02.996Z,100670.09
2024-03-12T05:03:36.006Z,100670.94
2024-03-12T05:04:22.500Z,100681.34
2024-03-12T05:05:01.456Z,100677.88
2024-03-12T05:05:46.591Z,100677.88
2024-03-12T05:06:23.757Z,100674.38
2024-03-12T05:06:56.172Z,100679.50
2024-03-12T05:07:40.002Z,100681.97
2024-03-12T05:08:12.407Z,100680.53
2024-03-12T05:08:47.836Z,100673.38
2024-03-12T05:09:24.649Z,100684.81
2024-03-12T05:10:01.066Z,100675.84
2024-03-12T05:10:36.360Z,100670.53
2024-03-12T05:11:11.753Z,100680.34
2024-03-12T05:11:50.061Z,100674.19
2024-03-12T05:12:28.139Z,100677.66
2024-03-12T05:13:15.372Z,100679.50
2024-03-12T05:13:53.938Z,100677.88
2024-03-12T05:14:29.394Z,100689.13
2024-03-12T05:15:08.115Z,100679.31
2024-03-12T05:16:10.198Z,100684.81
2024-03-12T05:16:45.507Z,100680.34
2024-03-12T05:17:19.753Z,100693.22
2024-03-12T05:17:54.653Z,100688.72
2024-03-12T05:18:29.679Z,100685.47
2024-03-12T05:19:02.020Z,100681.97
2024-03-12T05:19:36.938Z,100686.94
2024-03-12T05:20:30.441Z,100686.09
2024-03-12T05:21:06.085Z,100679.31
2024-03-12T05:21:44.043Z,100681.78
2024-03-12T05:22:28.163Z,100683.44
2024-03-12T05:23:05.308Z,100683.44
2024-03-12T05:23:37.670Z,100688.34
2024-03-12T05:24:21.352Z,100688.16
2024-03-12T05:24:57.912Z,100693.47
2024-03-12T05:25:41.068Z,100687.94
2024-03-12T05:26:19.625Z,100681.00
2024-03-12T05:26:53.598Z,100687.94
2024-03-12T05:27:39.337Z,100689.59
2024-03-12T05:28:17.445Z,100690.41
2024-03-12T05:28:55.855Z,100691.22
2024-03-12T05:29:37.969Z,100690.41
2024-03-12T05:30:25.701Z,100687.75
2024-03-12T05:31:09.218Z,100693.06
2024-03-12T05:31:52.472Z,100686.50
2024-03-12T05:32:30.563Z,100689.78
2024-03-12T05:33:11.198Z,100691.41
2024-03-12T05:33:52.084Z,100692.06
2024-03-12T05:34:36.619Z,100692.06
2024-03-12T05:35:35.522Z,100687.56
2024-03-12T05:36:11.101Z,100695.53
2024-03-12T05:36:50.172Z,100687.78
2024-03-12T05:38:02.932Z,100696.56
2024-03-12T05:38:46.181Z,100692.47
2024-03-12T05:39:25.951Z,100696.78
2024-03-12T05:40:21.418Z,100700.84
2024-03-12T05:41:16.150Z,100695.53
2024-03-12T05:42:10.748Z,100696.38
2024-03-12T05:43:10.043Z,100693.50
2024-03-12T05:43:57.748Z,100696.78
2024-03-12T05:44:51.032Z,100698.41
2024-03-12T05:45:38.467Z,100704.38
2024-03-12T05:46:28.732Z,100702.13
2024-03-12T05:47:30.755Z,100697.63
2024-03-12T05:48:12.089Z,100694.75
2024-03-12T05:48:51.811Z,100700.69
2024-03-12T05:49:27.641Z,100691.47
2024-03-12T05:50:23.958Z,100702.94
2024-03-12T05:51:00.486Z,100701.28
2024-03-12T05:51:36.628Z,100697.44
2024-03-12T05:52:27.102Z,100698.03
2024-03-12T05:53:07.733Z,100703.16
2024-03-12T05:53:43.226Z,100697.44
2024-03-12T05:54:27.419Z,100697.22
2024-03-12T05:55:02.910Z,100701.34
2024-03-12T05:55:47.648Z,100699.28
2024-03-12T05:56:21.120Z,100704.63
2024-03-12T05:56:56.751Z,100698.09
2024-03-12T05:57:35.057Z,100698.88
2024-03-12T05:58:19.961Z,100695.00
2024-03-12T05:59:03.393Z,100702.16
2024-03-12T05:59:36.089Z,100701.34
2024-03-12T06:00:15.551Z,100695.00
2024-03-12T06:00:49.129Z,100701.97
2024-03-12T06:01:36.371Z,100698.06
2024-03-12T06:02:10.117Z,100702.56
2024-03-12T06:02:51.082Z,100699.72
2024-03-12T06:03:38.848Z,100699.31
2024-03-12T06:04:11.340Z,100699.09
2024-03-12T06:04:49.607Z,100695.22
2024-03-12T06:05:42.086Z,100693.16
2024-03-12T06:06:14.799Z,100694.00
2024-03-12T06:06:50.578Z,100691.75
2024-03-12T06:07:28.512Z,100695.81
2024-03-12T06:08:07.452Z,100684.16
2024-03-12T06:08:55.068Z,100688.47
2024-03-12T06:09:30.265Z,100696.44
2024-03-12T06:10:14.326Z,100684.78
2024-03-12T06:10:54.938Z,100688.88
2024-03-12T06:11:29.996Z,100690.69
2024-03-12T06:12:03.177Z,100691.53
2024-03-12T06:12:38.815Z,100696.84
2024-03-12T06:13:21.416Z,100689.69
2024-03-12T06:14:12.973Z,100705.47
2024-03-12T06:14:57.146Z,100692.34
2024-03-12T06:15:33.363Z,100696.66
2024-03-12T06:16:29.427Z,100692.34
2024-03-12T06:17:08.735Z,100700.34
2024-03-12T06:17:47.778Z,100699.31
2024-03-12T06:18:24.330Z,100697.25
2024-03-12T06:19:01.539Z,100694.41
2024-03-12T06:19:36.975Z,100696.03
2024-03-12T06:20:18.300Z,100695.63
2024-03-12T06:20:53.468Z,100695.44
2024-03-12T06:21:31.950Z,100701.34
2024-03-12T06:22:09.835Z,100702.16
2024-03-12T06:22:45.447Z,100707.91
2024-03-12T06:23:27.231Z,100688.66
2024-03-12T06:24:20.350Z,100690.09
2024-03-12T06:25:07.108Z,100689.47
2024-03-12T06:25:43.360Z,100695.81
2024-03-12T06:26:20.075Z,100697.69
2024-03-12T06:27:07.483Z,100697.44
2024-03-12T06:27:40.188Z,100693.78
2024-03-12T06:28:16.096Z,100693.16
2024-03-12T06:28:51.365Z,100698.28
2024-03-12T06:29:26.401Z,100693.56
2024-03-12T06:30:01.894Z,100690.88
2024-03-12T06:30:39.994Z,100699.28
2024-03-12T06:31:13.396Z,100702.16
2024-03-12T06:32:04.443Z,100697.25
2024-03-12T06:32:45.279Z,100692.72
2024-03-12T06:33:24.654Z,100691.09
2024-03-12T06:34:01.051Z,100695.16
2024-03-12T06:34:34.199Z,100694.97
2024-03-12T06:35:13.189Z,100696.41
2024-03-12T06:36:04.249Z,100689.84
2024-03-12T06:36:45.117Z,100693.56
2024-03-12T06:37:23.479Z,100681.66
2024-03-12T06:38:00.013Z,100686.16
2024-03-12T06:38:35.872Z,100683.28
2024-03-12T06:39:19.225Z,100683.28
2024-03-12T06:39:57.302Z,100682.06
2024-03-12T06:40:33.174Z,100697.63
2024-03-12T06:41:19.775Z,100690.66
2024-03-12T06:41:54.850Z,100691.28
2024-03-12T06:43:19.963Z,100680.84
2024-03-12T06:43:57.795Z,100683.28
2024-03-12T06:44:36.429Z,100685.13
2024-03-12T06:45:14.671Z,100688.63
2024-03-12T06:46:05.004Z,100687.81
2024-03-12T06:46:46.361Z,100687.59
2024-03-12T06:47:25.884Z,100684.94
2024-03-12T06:48:08.095Z,100680.00
2024-03-12T06:48:44.549Z,100680.00
2024-03-12T06:49:28.574Z,100684.09
2024-03-12T06:50:12.341Z,100682.47
2024-03-12T06:50:52.159Z,100675.28
2024-03-12T06:51:34.012Z,100682.03
2024-03-12T06:52:24.464Z,100681.63
2024-03-12T06:53:03.819Z,100683.25
2024-03-12T06:53:38.917Z,100675.47
2024-03-12T06:54:17.336Z,100675.28
2024-03-12T06:54:52.273Z,100674.25
2024-03-12T06:55:34.995Z,100675.88
2024-03-12T06:56:08.548Z,100679.97
2024-03-12T06:56:47.885Z,100674.66
2024-03-12T06:57:32.094Z,100682.63
2024-03-12T06:58:20.617Z,100682.44
2024-03-12T06:58:58.830Z,100684.06
2024-03-12T07:00:38.388Z,100682.44
2024-03-12T07:01:26.786Z,100682.44
2024-03-12T07:01:59.296Z,100688.38
2024-03-12T07:02:39.722Z,100684.47
2024-03-12T07:03:12.035Z,100682.44
2024-03-12T07:04:02.963Z,100685.69
2024-03-12T07:04:38.634Z,100683.47
2024-03-12T07:05:19.950Z,100693.31
2024-03-12T07:06:00.448Z,100679.97
2024-03-12T07:06:45.145Z,100691.06
2024-03-12T07:07:29.222Z,100693.31
2024-03-12T07:08:15.714Z,100685.31
2024-03-12T07:09:02.684Z,100693.50
2024-03-12T07:09:38.916Z,100693.72
2024-03-12T07:10:20.716Z,100690.25
2024-03-12T07:11:06.200Z,100684.09
2024-03-12T07:11:46.397Z,100685.09
2024-03-12T07:12:21.618Z,100690.25
2024-03-12T07:12:55.179Z,100692.69
2024-03-12T07:13:41.650Z,100690.00
2024-03-12T07:14:33.956Z,100691.47
2024-03-12T07:15:15.869Z,100693.69
2024-03-12T07:15:59.532Z,100686.53
2024-03-12T07:16:35.144Z,100689.00
2024-03-12T07:17:09.310Z,100689.59
2024-03-12T07:17:44.408Z,100689.19
2024-03-12T07:18:27.692Z,100687.94
2024-03-12T07:19:06.336Z,100684.00
2024-03-12T07:19:44.882Z,100679.50
2024-03-12T07:20:22.900Z,100692.63
2024-03-12T07:21:00.890Z,100689.97
2024-03-12T07:21:42.940Z,100688.94
2024-03-12T07:22:26.511Z,100674.56
2024-03-12T07:23:10.590Z,100682.38
2024-03-12T07:23:45.678Z,100688.53
2024-03-12T07:24:18.908Z,100684.81
2024-03-12T07:24:59.760Z,100688.09
2024-03-12T07:25:37.992Z,100689.94
2024-03-12T07:26:13.212Z,100689.72
2024-03-12T07:27:00.927Z,100689.53
2024-03-12T07:27:39.375Z,100695.69
2024-03-12T07:28:24.885Z,100689.53
2024-03-12T07:29:08.377Z,100691.56
2024-03-12T07:29:45.023Z,100694.47
2024-03-12T07:30:22.771Z,100696.09
2024-03-12T07:31:07.331Z,100694.25
2024-03-12T07:31:43.130Z,100694.03
2024-03-12T07:32:20.955Z,100694.88
2024-03-12T07:32:59.763Z,100695.47
2024-03-12T07:33:38.817Z,100691.78
2024-03-12T07:34:11.426Z,100696.66
2024-03-12T07:34:53.611Z,100699.75
2024-03-12T07:35:26.066Z,100710.63
2024-03-12T07:36:22.428Z,100703.63
2024-03-12T07:37:09.159Z,100702.81
2024-03-12T07:37:47.360Z,100694.00
2024-03-12T07:38:19.793Z,100696.47
2024-03-12T07:38:55.045Z,100700.53
2024-03-12T07:39:36.924Z,100690.06
2024-03-12T07:40:16.847Z,100708.16
2024-03-12T07:41:01.981Z,100696.25